Terminal Aerodrome Forecast
Issued by NWS Flagstaff, AZ

Home | Current Version | Previous Version | Text Only | Print | Product List | Glossary On
Versions: 1 2 3 4 5 6 7 8 9 10 11 12 13 14 15 16 17 18 19 20 21 22 23 24 25 26 27 28 29 30 31 32 33 34
871
FTUS45 KFGZ 230043 CCA
TAFFLG
TAF COR
KFLG 230043Z 2301/2324 23011KT 1/4SM -SN FZFG OVC003
      TEMPO 2301/2304 1 1/2SM -SN BR SCT008 OVC015
     FM230400 22016G26KT 1/2SM SN FZFG OVC006
     FM230600 22020G30KT 1/4SM SN FZFG VV002=

USA.gov is the U.S. government's official web portal to all federal, state and local government web resources and services.